sensor_id;sensor_type;location;lat;lon;timestamp;temperature;humidity
52731;DHT22;38624;53.242;6.974;2022-08-21T00:01:42;16.20;99.90
52731;DHT22;38624;53.242;6.974;2022-08-21T00:04:09;16.10;99.90
52731;DHT22;38624;53.242;6.974;2022-08-21T00:06:36;16.10;99.90
52731;DHT22;38624;53.242;6.974;2022-08-21T00:09:04;16.00;99.90
52731;DHT22;38624;53.242;6.974;2022-08-21T00:11:31;15.90;99.90
52731;DHT22;38624;53.242;6.974;2022-08-21T00:13:56;15.90;99.90
52731;DHT22;38624;53.242;6.974;2022-08-21T00:16:22;15.90;99.90
52731;DHT22;38624;53.242;6.974;2022-08-21T00:18:49;15.90;99.90
52731;DHT22;38624;53.242;6.974;2022-08-21T00:21:15;15.90;99.90
52731;DHT22;38624;53.242;6.974;2022-08-21T00:23:41;15.90;99.90
52731;DHT22;38624;53.242;6.974;2022-08-21T00:26:07;15.80;99.90
52731;DHT22;38624;53.242;6.974;2022-08-21T00:28:33;15.80;99.90
52731;DHT22;38624;53.242;6.974;2022-08-21T00:30:59;15.80;99.90
52731;DHT22;38624;53.242;6.974;2022-08-21T00:33:26;15.80;99.90
52731;DHT22;38624;53.242;6.974;2022-08-21T00:35:52;15.80;99.90
52731;DHT22;38624;53.242;6.974;2022-08-21T00:38:18;15.80;99.90
52731;DHT22;38624;53.242;6.974;2022-08-21T00:40:52;15.70;99.90
52731;DHT22;38624;53.242;6.974;2022-08-21T00:43:22;15.70;99.90
52731;DHT22;38624;53.242;6.974;2022-08-21T00:45:48;15.70;99.90
52731;DHT22;38624;53.242;6.974;2022-08-21T00:48:14;15.70;99.90
52731;DHT22;38624;53.242;6.974;2022-08-21T00:50:46;15.60;99.90
52731;DHT22;38624;53.242;6.974;2022-08-21T00:53:14;15.60;99.90
52731;DHT22;38624;53.242;6.974;2022-08-21T00:55:41;15.60;99.90
52731;DHT22;38624;53.242;6.974;2022-08-21T00:58:08;15.60;99.90
52731;DHT22;38624;53.242;6.974;2022-08-21T01:00:37;15.60;99.90
52731;DHT22;38624;53.242;6.974;2022-08-21T01:03:09;15.60;99.90
52731;DHT22;38624;53.242;6.974;2022-08-21T01:05:36;15.50;99.90
52731;DHT22;38624;53.242;6.974;2022-08-21T01:08:03;15.50;99.90
52731;DHT22;38624;53.242;6.974;2022-08-21T01:10:29;15.50;99.90
52731;DHT22;38624;53.242;6.974;2022-08-21T01:12:56;15.50;99.90
52731;DHT22;38624;53.242;6.974;2022-08-21T01:15:30;15.50;99.90
52731;DHT22;38624;53.242;6.974;2022-08-21T01:17:57;15.50;99.90
52731;DHT22;38624;53.242;6.974;2022-08-21T01:20:23;15.50;99.90
52731;DHT22;38624;53.242;6.974;2022-08-21T01:22:49;15.60;99.90
52731;DHT22;38624;53.242;6.974;2022-08-21T01:25:16;15.50;99.90
52731;DHT22;38624;53.242;6.974;2022-08-21T01:27:43;15.50;99.90
52731;DHT22;38624;53.242;6.974;2022-08-21T01:30:14;15.60;99.90
52731;DHT22;38624;53.242;6.974;2022-08-21T01:32:40;15.50;99.90
52731;DHT22;38624;53.242;6.974;2022-08-21T01:35:07;15.50;99.90
52731;DHT22;38624;53.242;6.974;2022-08-21T01:37:33;15.50;99.90
52731;DHT22;38624;53.242;6.974;2022-08-21T01:39:59;15.50;99.90
52731;DHT22;38624;53.242;6.974;2022-08-21T01:42:25;15.50;99.90
52731;DHT22;38624;53.242;6.974;2022-08-21T01:44:50;15.50;99.90
52731;DHT22;38624;53.242;6.974;2022-08-21T01:47:16;15.50;99.90
52731;DHT22;38624;53.242;6.974;2022-08-21T01:49:44;15.50;99.90
52731;DHT22;38624;53.242;6.974;2022-08-21T01:52:10;15.50;99.90
52731;DHT22;38624;53.242;6.974;2022-08-21T01:54:37;15.50;99.90
52731;DHT22;38624;53.242;6.974;2022-08-21T01:57:04;15.50;99.90
52731;DHT22;38624;53.242;6.974;2022-08-21T01:59:30;15.50;99.90
52731;DHT22;38624;53.242;6.974;2022-08-21T02:01:55;15.50;99.90
52731;DHT22;38624;53.242;6.974;2022-08-21T02:04:21;15.50;99.90
52731;DHT22;38624;53.242;6.974;2022-08-21T02:06:47;15.50;99.90
52731;DHT22;38624;53.242;6.974;2022-08-21T02:09:14;15.50;99.90
52731;DHT22;38624;53.242;6.974;2022-08-21T02:11:40;15.40;99.90
52731;DHT22;38624;53.242;6.974;2022-08-21T02:14:11;15.40;99.90
52731;DHT22;38624;53.242;6.974;2022-08-21T02:16:38;15.40;99.90
52731;DHT22;38624;53.242;6.974;2022-08-21T02:19:04;15.30;99.90
52731;DHT22;38624;53.242;6.974;2022-08-21T02:21:30;15.30;99.90
52731;DHT22;38624;53.242;6.974;2022-08-21T02:23:56;15.30;99.90
52731;DHT22;38624;53.242;6.974;2022-08-21T02:26:22;15.30;99.90
52731;DHT22;38624;53.242;6.974;2022-08-21T02:28:48;15.20;99.90
52731;DHT22;38624;53.242;6.974;2022-08-21T02:31:14;15.20;99.90
52731;DHT22;38624;53.242;6.974;2022-08-21T02:33:40;15.20;99.90
52731;DHT22;38624;53.242;6.974;2022-08-21T02:36:07;15.10;99.90
52731;DHT22;38624;53.242;6.974;2022-08-21T02:38:33;15.10;99.90
52731;DHT22;38624;53.242;6.974;2022-08-21T02:41:04;15.00;99.90
52731;DHT22;38624;53.242;6.974;2022-08-21T02:43:30;15.00;99.90
52731;DHT22;38624;53.242;6.974;2022-08-21T02:45:57;15.00;99.90
52731;DHT22;38624;53.242;6.974;2022-08-21T02:48:26;15.00;99.90
52731;DHT22;38624;53.242;6.974;2022-08-21T02:50:56;14.90;99.90
52731;DHT22;38624;53.242;6.974;2022-08-21T02:53:23;14.90;99.90
52731;DHT22;38624;53.242;6.974;2022-08-21T02:55:51;14.90;99.90
52731;DHT22;38624;53.242;6.974;2022-08-21T02:58:20;14.90;99.90
52731;DHT22;38624;53.242;6.974;2022-08-21T03:00:46;14.80;99.90
52731;DHT22;38624;53.242;6.974;2022-08-21T03:03:12;14.80;99.90
52731;DHT22;38624;53.242;6.974;2022-08-21T03:05:38;14.80;99.90
52731;DHT22;38624;53.242;6.974;2022-08-21T03:08:06;14.80;99.90
52731;DHT22;38624;53.242;6.974;2022-08-21T03:10:38;14.70;99.90
52731;DHT22;38624;53.242;6.974;2022-08-21T03:13:05;14.70;99.90
52731;DHT22;38624;53.242;6.974;2022-08-21T03:15:31;14.70;99.90
52731;DHT22;38624;53.242;6.974;2022-08-21T03:17:58;14.60;99.90
52731;DHT22;38624;53.242;6.974;2022-08-21T03:20:27;14.60;99.90
52731;DHT22;38624;53.242;6.974;2022-08-21T03:22:54;14.60;99.90
52731;DHT22;38624;53.242;6.974;2022-08-21T03:25:24;14.60;99.90
52731;DHT22;38624;53.242;6.974;2022-08-21T03:27:51;14.60;99.90
52731;DHT22;38624;53.242;6.974;2022-08-21T03:30:18;14.50;99.90
52731;DHT22;38624;53.242;6.974;2022-08-21T03:32:46;14.50;99.90
52731;DHT22;38624;53.242;6.974;2022-08-21T03:35:12;14.50;99.90
52731;DHT22;38624;53.242;6.974;2022-08-21T03:37:38;14.50;99.90
52731;DHT22;38624;53.242;6.974;2022-08-21T03:40:05;14.50;99.90
52731;DHT22;38624;53.242;6.974;2022-08-21T03:42:32;14.40;99.90
52731;DHT22;38624;53.242;6.974;2022-08-21T03:44:57;14.40;99.90
52731;DHT22;38624;53.242;6.974;2022-08-21T03:47:23;14.40;99.90
52731;DHT22;38624;53.242;6.974;2022-08-21T03:49:49;14.40;99.90
52731;DHT22;38624;53.242;6.974;2022-08-21T03:52:15;14.30;99.90
52731;DHT22;38624;53.242;6.974;2022-08-21T03:54:41;14.40;99.90
52731;DHT22;38624;53.242;6.974;2022-08-21T03:57:08;14.40;99.90
52731;DHT22;38624;53.242;6.974;2022-08-21T03:59:35;14.30;99.90
52731;DHT22;38624;53.242;6.974;2022-08-21T04:02:03;14.40;99.90
52731;DHT22;38624;53.242;6.974;2022-08-21T04:04:29;14.30;99.90
52731;DHT22;38624;53.242;6.974;2022-08-21T04:06:56;14.30;99.90
52731;DHT22;38624;53.242;6.974;2022-08-21T04:09:22;14.30;99.90
52731;DHT22;38624;53.242;6.974;2022-08-21T04:11:48;14.30;99.90
52731;DHT22;38624;53.242;6.974;2022-08-21T04:14:15;14.30;99.90
52731;DHT22;38624;53.242;6.974;2022-08-21T04:16:42;14.30;99.90
52731;DHT22;38624;53.242;6.974;2022-08-21T04:19:08;14.20;99.90
52731;DHT22;38624;53.242;6.974;2022-08-21T04:21:37;14.20;99.90
52731;DHT22;38624;53.242;6.974;2022-08-21T04:24:04;14.20;99.90
52731;DHT22;38624;53.242;6.974;2022-08-21T04:26:30;14.20;99.90
52731;DHT22;38624;53.242;6.974;2022-08-21T04:28:57;14.20;99.90
52731;DHT22;38624;53.242;6.974;2022-08-21T04:31:23;14.20;99.90
52731;DHT22;38624;53.242;6.974;2022-08-21T04:33:50;14.20;99.90
52731;DHT22;38624;53.242;6.974;2022-08-21T04:36:16;14.20;99.90
52731;DHT22;38624;53.242;6.974;2022-08-21T04:38:42;14.20;99.90
52731;DHT22;38624;53.242;6.974;2022-08-21T04:41:08;14.20;99.90
52731;DHT22;38624;53.242;6.974;2022-08-21T04:43:34;14.20;99.90
52731;DHT22;38624;53.242;6.974;2022-08-21T04:46:00;14.20;99.90
52731;DHT22;38624;53.242;6.974;2022-08-21T04:48:25;14.10;99.90
52731;DHT22;38624;53.242;6.974;2022-08-21T04:53:51;14.10;99.90
52731;DHT22;38624;53.242;6.974;2022-08-21T04:56:36;14.10;99.90
52731;DHT22;38624;53.242;6.974;2022-08-21T04:59:05;14.10;99.90
52731;DHT22;38624;53.242;6.974;2022-08-21T05:01:34;14.10;99.90
52731;DHT22;38624;53.242;6.974;2022-08-21T05:04:02;14.10;99.90
52731;DHT22;38624;53.242;6.974;2022-08-21T05:06:33;14.10;99.90
52731;DHT22;38624;53.242;6.974;2022-08-21T05:08:59;14.10;99.90
52731;DHT22;38624;53.242;6.974;2022-08-21T05:11:25;14.10;99.90
52731;DHT22;38624;53.242;6.974;2022-08-21T05:13:51;14.20;99.90
52731;DHT22;38624;53.242;6.974;2022-08-21T05:16:17;14.20;99.90
52731;DHT22;38624;53.242;6.974;2022-08-21T05:18:43;14.30;99.90
52731;DHT22;38624;53.242;6.974;2022-08-21T05:21:09;14.30;99.90
52731;DHT22;38624;53.242;6.974;2022-08-21T05:23:35;14.40;99.90
52731;DHT22;38624;53.242;6.974;2022-08-21T05:26:01;14.40;99.90
52731;DHT22;38624;53.242;6.974;2022-08-21T05:28:27;14.50;99.90
52731;DHT22;38624;53.242;6.974;2022-08-21T05:30:53;14.60;99.90
52731;DHT22;38624;53.242;6.974;2022-08-21T05:33:19;14.70;99.90
52731;DHT22;38624;53.242;6.974;2022-08-21T05:35:44;14.70;99.90
52731;DHT22;38624;53.242;6.974;2022-08-21T05:38:11;14.80;99.90
52731;DHT22;38624;53.242;6.974;2022-08-21T05:40:37;14.90;99.90
52731;DHT22;38624;53.242;6.974;2022-08-21T05:43:03;15.00;99.90
52731;DHT22;38624;53.242;6.974;2022-08-21T05:45:31;15.00;99.90
52731;DHT22;38624;53.242;6.974;2022-08-21T05:47:57;15.10;99.90
52731;DHT22;38624;53.242;6.974;2022-08-21T05:50:23;15.20;99.90
52731;DHT22;38624;53.242;6.974;2022-08-21T05:52:49;15.30;99.90
52731;DHT22;38624;53.242;6.974;2022-08-21T05:55:14;15.30;99.90
52731;DHT22;38624;53.242;6.974;2022-08-21T05:57:40;15.40;99.90
52731;DHT22;38624;53.242;6.974;2022-08-21T06:00:08;15.50;99.90
52731;DHT22;38624;53.242;6.974;2022-08-21T06:02:35;15.60;99.90
52731;DHT22;38624;53.242;6.974;2022-08-21T06:05:01;15.70;99.90
52731;DHT22;38624;53.242;6.974;2022-08-21T06:07:27;15.90;99.90
52731;DHT22;38624;53.242;6.974;2022-08-21T06:09:52;15.90;99.90
52731;DHT22;38624;53.242;6.974;2022-08-21T06:12:18;15.90;99.90
52731;DHT22;38624;53.242;6.974;2022-08-21T06:14:44;16.10;99.90
52731;DHT22;38624;53.242;6.974;2022-08-21T06:17:11;16.10;99.90
52731;DHT22;38624;53.242;6.974;2022-08-21T06:19:38;16.20;99.90
52731;DHT22;38624;53.242;6.974;2022-08-21T06:22:04;16.30;99.90
52731;DHT22;38624;53.242;6.974;2022-08-21T06:24:30;16.40;99.90
52731;DHT22;38624;53.242;6.974;2022-08-21T06:26:56;16.50;99.90
52731;DHT22;38624;53.242;6.974;2022-08-21T06:29:23;16.70;99.90
52731;DHT22;38624;53.242;6.974;2022-08-21T06:31:50;16.80;99.90
52731;DHT22;38624;53.242;6.974;2022-08-21T06:34:17;16.90;99.90
52731;DHT22;38624;53.242;6.974;2022-08-21T06:36:43;17.00;99.90
52731;DHT22;38624;53.242;6.974;2022-08-21T06:39:09;17.10;99.90
52731;DHT22;38624;53.242;6.974;2022-08-21T06:41:34;17.30;99.90
52731;DHT22;38624;53.242;6.974;2022-08-21T06:44:00;17.30;99.90
52731;DHT22;38624;53.242;6.974;2022-08-21T06:46:28;17.50;99.90
52731;DHT22;38624;53.242;6.974;2022-08-21T06:48:55;17.50;99.90
52731;DHT22;38624;53.242;6.974;2022-08-21T06:51:20;17.60;99.90
52731;DHT22;38624;53.242;6.974;2022-08-21T06:53:47;17.70;99.90
52731;DHT22;38624;53.242;6.974;2022-08-21T06:56:13;17.80;99.90
52731;DHT22;38624;53.242;6.974;2022-08-21T06:58:38;17.80;99.90
52731;DHT22;38624;53.242;6.974;2022-08-21T07:01:04;17.90;99.90
52731;DHT22;38624;53.242;6.974;2022-08-21T07:03:37;17.90;99.90
52731;DHT22;38624;53.242;6.974;2022-08-21T07:06:04;18.00;99.90
52731;DHT22;38624;53.242;6.974;2022-08-21T07:08:30;18.10;99.90
52731;DHT22;38624;53.242;6.974;2022-08-21T07:10:58;18.10;99.90
52731;DHT22;38624;53.242;6.974;2022-08-21T07:13:26;18.20;99.90
52731;DHT22;38624;53.242;6.974;2022-08-21T07:15:51;18.30;99.90
52731;DHT22;38624;53.242;6.974;2022-08-21T07:18:17;18.40;99.90
52731;DHT22;38624;53.242;6.974;2022-08-21T07:20:43;18.50;99.90
52731;DHT22;38624;53.242;6.974;2022-08-21T07:23:30;18.50;99.90
52731;DHT22;38624;53.242;6.974;2022-08-21T07:25:57;18.60;99.90
52731;DHT22;38624;53.242;6.974;2022-08-21T07:28:24;18.70;99.90
52731;DHT22;38624;53.242;6.974;2022-08-21T07:30:52;18.80;99.90
52731;DHT22;38624;53.242;6.974;2022-08-21T07:33:18;18.90;99.90
52731;DHT22;38624;53.242;6.974;2022-08-21T07:35:44;19.00;99.90
52731;DHT22;38624;53.242;6.974;2022-08-21T07:38:09;19.10;99.90
52731;DHT22;38624;53.242;6.974;2022-08-21T07:40:35;19.10;99.90
52731;DHT22;38624;53.242;6.974;2022-08-21T07:43:01;19.20;99.90
52731;DHT22;38624;53.242;6.974;2022-08-21T07:45:27;19.30;99.90
52731;DHT22;38624;53.242;6.974;2022-08-21T07:47:53;19.40;99.90
52731;DHT22;38624;53.242;6.974;2022-08-21T07:50:19;19.50;99.90
52731;DHT22;38624;53.242;6.974;2022-08-21T07:52:45;19.50;99.90
52731;DHT22;38624;53.242;6.974;2022-08-21T07:55:15;19.60;99.90
52731;DHT22;38624;53.242;6.974;2022-08-21T07:57:41;19.70;99.90
52731;DHT22;38624;53.242;6.974;2022-08-21T08:00:10;19.80;99.90
52731;DHT22;38624;53.242;6.974;2022-08-21T08:02:35;19.80;99.90
52731;DHT22;38624;53.242;6.974;2022-08-21T08:05:03;20.00;99.90
52731;DHT22;38624;53.242;6.974;2022-08-21T08:07:29;20.00;99.90
52731;DHT22;38624;53.242;6.974;2022-08-21T08:09:55;20.10;99.90
52731;DHT22;38624;53.242;6.974;2022-08-21T08:12:22;20.20;99.90
52731;DHT22;38624;53.242;6.974;2022-08-21T08:14:47;20.20;99.90
52731;DHT22;38624;53.242;6.974;2022-08-21T08:17:13;20.30;99.90
52731;DHT22;38624;53.242;6.974;2022-08-21T08:19:39;20.40;99.90
52731;DHT22;38624;53.242;6.974;2022-08-21T08:22:16;20.40;99.90
52731;DHT22;38624;53.242;6.974;2022-08-21T08:24:47;20.60;99.90
52731;DHT22;38624;53.242;6.974;2022-08-21T08:27:14;20.60;99.90
52731;DHT22;38624;53.242;6.974;2022-08-21T08:29:40;20.60;99.90
52731;DHT22;38624;53.242;6.974;2022-08-21T08:32:06;20.80;99.90
52731;DHT22;38624;53.242;6.974;2022-08-21T08:34:36;20.80;99.90
52731;DHT22;38624;53.242;6.974;2022-08-21T08:37:03;20.90;99.90
52731;DHT22;38624;53.242;6.974;2022-08-21T08:39:30;20.90;99.90
52731;DHT22;38624;53.242;6.974;2022-08-21T08:42:24;21.00;99.90
52731;DHT22;38624;53.242;6.974;2022-08-21T08:44:57;21.00;99.90
52731;DHT22;38624;53.242;6.974;2022-08-21T08:47:25;21.10;99.90
52731;DHT22;38624;53.242;6.974;2022-08-21T08:52:27;21.30;99.90
52731;DHT22;38624;53.242;6.974;2022-08-21T08:55:18;21.30;99.90
52731;DHT22;38624;53.242;6.974;2022-08-21T08:57:47;21.40;99.90
52731;DHT22;38624;53.242;6.974;2022-08-21T09:00:16;21.50;99.90
52731;DHT22;38624;53.242;6.974;2022-08-21T09:02:43;21.50;99.90
52731;DHT22;38624;53.242;6.974;2022-08-21T09:05:09;21.60;99.90
52731;DHT22;38624;53.242;6.974;2022-08-21T09:07:54;21.60;99.90
52731;DHT22;38624;53.242;6.974;2022-08-21T09:10:30;21.70;99.90
52731;DHT22;38624;53.242;6.974;2022-08-21T09:13:19;21.80;99.90
52731;DHT22;38624;53.242;6.974;2022-08-21T09:16:05;21.90;99.90
52731;DHT22;38624;53.242;6.974;2022-08-21T09:19:23;22.00;99.90
52731;DHT22;38624;53.242;6.974;2022-08-21T09:21:47;22.00;99.90
52731;DHT22;38624;53.242;6.974;2022-08-21T09:24:53;22.10;99.90
52731;DHT22;38624;53.242;6.974;2022-08-21T09:27:22;22.10;99.90
52731;DHT22;38624;53.242;6.974;2022-08-21T09:29:53;22.20;99.90
52731;DHT22;38624;53.242;6.974;2022-08-21T09:32:22;22.20;99.90
52731;DHT22;38624;53.242;6.974;2022-08-21T09:37:56;22.40;99.90
52731;DHT22;38624;53.242;6.974;2022-08-21T09:40:39;22.50;99.90
52731;DHT22;38624;53.242;6.974;2022-08-21T09:45:41;22.60;99.90
52731;DHT22;38624;53.242;6.974;2022-08-21T09:48:23;22.60;99.90
52731;DHT22;38624;53.242;6.974;2022-08-21T09:50:50;22.60;99.90
52731;DHT22;38624;53.242;6.974;2022-08-21T09:53:24;22.70;99.90
52731;DHT22;38624;53.242;6.974;2022-08-21T09:55:58;22.70;99.90
52731;DHT22;38624;53.242;6.974;2022-08-21T09:58:46;22.80;99.90
52731;DHT22;38624;53.242;6.974;2022-08-21T10:01:21;22.90;99.90
52731;DHT22;38624;53.242;6.974;2022-08-21T10:03:47;22.90;99.90
52731;DHT22;38624;53.242;6.974;2022-08-21T10:06:26;23.00;99.90
52731;DHT22;38624;53.242;6.974;2022-08-21T10:09:04;23.00;99.90
52731;DHT22;38624;53.242;6.974;2022-08-21T10:11:31;23.10;99.90
52731;DHT22;38624;53.242;6.974;2022-08-21T10:17:09;23.20;99.90
52731;DHT22;38624;53.242;6.974;2022-08-21T10:28:27;23.30;99.90
52731;DHT22;38624;53.242;6.974;2022-08-21T10:31:27;23.30;99.90
52731;DHT22;38624;53.242;6.974;2022-08-21T10:39:21;23.50;99.90
52731;DHT22;38624;53.242;6.974;2022-08-21T10:44:54;23.10;99.90
52731;DHT22;38624;53.242;6.974;2022-08-21T10:47:41;23.30;99.90
52731;DHT22;38624;53.242;6.974;2022-08-21T10:55:44;23.60;99.90
52731;DHT22;38624;53.242;6.974;2022-08-21T10:58:22;23.90;99.90
52731;DHT22;38624;53.242;6.974;2022-08-21T11:01:38;24.10;99.90
52731;DHT22;38624;53.242;6.974;2022-08-21T11:04:10;24.70;99.90
52731;DHT22;38624;53.242;6.974;2022-08-21T11:06:40;25.10;99.90
52731;DHT22;38624;53.242;6.974;2022-08-21T11:09:15;25.50;99.90
52731;DHT22;38624;53.242;6.974;2022-08-21T11:12:05;26.00;99.90
52731;DHT22;38624;53.242;6.974;2022-08-21T11:14:47;26.60;99.90
52731;DHT22;38624;53.242;6.974;2022-08-21T11:17:16;27.00;99.90
52731;DHT22;38624;53.242;6.974;2022-08-21T11:20:18;26.90;99.90
52731;DHT22;38624;53.242;6.974;2022-08-21T11:22:49;26.50;99.10
52731;DHT22;38624;53.242;6.974;2022-08-21T11:25:37;26.00;98.90
52731;DHT22;38624;53.242;6.974;2022-08-21T11:28:31;25.60;98.70
52731;DHT22;38624;53.242;6.974;2022-08-21T11:31:22;25.30;99.10
52731;DHT22;38624;53.242;6.974;2022-08-21T11:37:02;24.80;99.70
52731;DHT22;38624;53.242;6.974;2022-08-21T11:39:32;24.50;99.20
52731;DHT22;38624;53.242;6.974;2022-08-21T11:50:25;25.10;99.80
52731;DHT22;38624;53.242;6.974;2022-08-21T11:53:08;25.10;99.40
52731;DHT22;38624;53.242;6.974;2022-08-21T11:55:50;25.10;99.30
52731;DHT22;38624;53.242;6.974;2022-08-21T11:58:40;25.00;99.90
52731;DHT22;38624;53.242;6.974;2022-08-21T12:01:19;24.90;99.40
52731;DHT22;38624;53.242;6.974;2022-08-21T12:09:10;24.70;99.50
52731;DHT22;38624;53.242;6.974;2022-08-21T12:12:00;24.60;99.90
52731;DHT22;38624;53.242;6.974;2022-08-21T12:14:37;24.50;99.90
52731;DHT22;38624;53.242;6.974;2022-08-21T12:17:04;24.40;99.90
52731;DHT22;38624;53.242;6.974;2022-08-21T12:19:31;24.30;99.90
52731;DHT22;38624;53.242;6.974;2022-08-21T12:24:50;24.10;99.90
52731;DHT22;38624;53.242;6.974;2022-08-21T12:27:53;23.90;99.90
52731;DHT22;38624;53.242;6.974;2022-08-21T12:33:47;23.80;99.90
52731;DHT22;38624;53.242;6.974;2022-08-21T12:35:46;23.80;99.90
52731;DHT22;38624;53.242;6.974;2022-08-21T12:38:26;24.60;99.90
52731;DHT22;38624;53.242;6.974;2022-08-21T12:43:26;27.30;99.90
52731;DHT22;38624;53.242;6.974;2022-08-21T12:45:53;28.30;98.40
52731;DHT22;38624;53.242;6.974;2022-08-21T12:48:47;29.30;97.20
52731;DHT22;38624;53.242;6.974;2022-08-21T12:51:18;30.60;97.40
52731;DHT22;38624;53.242;6.974;2022-08-21T12:56:20;31.60;91.30
52731;DHT22;38624;53.242;6.974;2022-08-21T12:58:48;32.10;90.90
52731;DHT22;38624;53.242;6.974;2022-08-21T13:01:23;32.50;86.70
52731;DHT22;38624;53.242;6.974;2022-08-21T13:03:51;32.90;84.90
52731;DHT22;38624;53.242;6.974;2022-08-21T13:06:20;33.40;82.30
52731;DHT22;38624;53.242;6.974;2022-08-21T13:08:48;33.80;81.20
52731;DHT22;38624;53.242;6.974;2022-08-21T13:11:18;34.20;79.60
52731;DHT22;38624;53.242;6.974;2022-08-21T13:13:50;34.40;77.40
52731;DHT22;38624;53.242;6.974;2022-08-21T13:16:28;32.90;76.10
52731;DHT22;38624;53.242;6.974;2022-08-21T13:19:01;33.10;76.00
52731;DHT22;38624;53.242;6.974;2022-08-21T13:21:38;33.00;76.40
52731;DHT22;38624;53.242;6.974;2022-08-21T13:24:24;32.40;75.00
52731;DHT22;38624;53.242;6.974;2022-08-21T13:26:50;31.30;75.20
52731;DHT22;38624;53.242;6.974;2022-08-21T13:29:19;30.40;77.00
52731;DHT22;38624;53.242;6.974;2022-08-21T13:32:01;29.80;77.70
52731;DHT22;38624;53.242;6.974;2022-08-21T13:34:34;29.40;77.40
52731;DHT22;38624;53.242;6.974;2022-08-21T13:37:07;29.40;77.20
52731;DHT22;38624;53.242;6.974;2022-08-21T13:39:33;29.10;77.40
52731;DHT22;38624;53.242;6.974;2022-08-21T13:42:01;29.10;76.20
52731;DHT22;38624;53.242;6.974;2022-08-21T13:44:35;28.70;76.10
52731;DHT22;38624;53.242;6.974;2022-08-21T13:47:04;28.30;77.30
52731;DHT22;38624;53.242;6.974;2022-08-21T13:49:37;28.00;78.60
52731;DHT22;38624;53.242;6.974;2022-08-21T13:52:04;27.60;80.80
52731;DHT22;38624;53.242;6.974;2022-08-21T13:54:40;27.20;81.30
52731;DHT22;38624;53.242;6.974;2022-08-21T13:57:17;26.90;81.60
52731;DHT22;38624;53.242;6.974;2022-08-21T13:59:43;26.40;82.60
52731;DHT22;38624;53.242;6.974;2022-08-21T14:02:22;26.10;82.80
52731;DHT22;38624;53.242;6.974;2022-08-21T14:05:00;25.80;83.40
52731;DHT22;38624;53.242;6.974;2022-08-21T14:07:36;25.50;85.10
52731;DHT22;38624;53.242;6.974;2022-08-21T14:10:18;25.40;85.20
52731;DHT22;38624;53.242;6.974;2022-08-21T14:15:59;26.00;85.20
52731;DHT22;38624;53.242;6.974;2022-08-21T14:18:25;26.00;84.00
52731;DHT22;38624;53.242;6.974;2022-08-21T14:21:02;26.00;84.20
52731;DHT22;38624;53.242;6.974;2022-08-21T14:23:28;26.00;84.40
52731;DHT22;38624;53.242;6.974;2022-08-21T14:25:59;26.80;83.60
52731;DHT22;38624;53.242;6.974;2022-08-21T14:28:40;26.60;82.80
52731;DHT22;38624;53.242;6.974;2022-08-21T14:31:19;26.20;83.00
52731;DHT22;38624;53.242;6.974;2022-08-21T14:33:46;25.80;83.20
52731;DHT22;38624;53.242;6.974;2022-08-21T14:36:11;25.50;84.00
52731;DHT22;38624;53.242;6.974;2022-08-21T14:38:39;25.20;85.80
52731;DHT22;38624;53.242;6.974;2022-08-21T14:41:25;25.00;88.00
52731;DHT22;38624;53.242;6.974;2022-08-21T14:43:53;24.60;90.40
52731;DHT22;38624;53.242;6.974;2022-08-21T14:46:28;24.40;90.60
52731;DHT22;38624;53.242;6.974;2022-08-21T14:48:55;24.60;90.90
52731;DHT22;38624;53.242;6.974;2022-08-21T14:51:21;25.50;90.30
52731;DHT22;38624;53.242;6.974;2022-08-21T14:53:47;26.40;89.10
52731;DHT22;38624;53.242;6.974;2022-08-21T14:56:13;27.30;88.00
52731;DHT22;38624;53.242;6.974;2022-08-21T14:58:42;27.90;86.10
52731;DHT22;38624;53.242;6.974;2022-08-21T15:01:10;27.30;84.60
52731;DHT22;38624;53.242;6.974;2022-08-21T15:03:37;26.70;85.10
52731;DHT22;38624;53.242;6.974;2022-08-21T15:06:05;26.20;86.90
52731;DHT22;38624;53.242;6.974;2022-08-21T15:08:31;25.90;88.30
52731;DHT22;38624;53.242;6.974;2022-08-21T15:10:57;25.70;89.20
52731;DHT22;38624;53.242;6.974;2022-08-21T15:13:23;25.50;88.80
52731;DHT22;38624;53.242;6.974;2022-08-21T15:15:50;26.30;88.90
52731;DHT22;38624;53.242;6.974;2022-08-21T15:18:19;27.80;86.30
52731;DHT22;38624;53.242;6.974;2022-08-21T15:20:45;28.90;85.10
52731;DHT22;38624;53.242;6.974;2022-08-21T15:23:11;30.40;83.40
52731;DHT22;38624;53.242;6.974;2022-08-21T15:25:41;30.70;81.20
52731;DHT22;38624;53.242;6.974;2022-08-21T15:28:08;31.50;78.80
52731;DHT22;38624;53.242;6.974;2022-08-21T15:30:35;32.00;76.40
52731;DHT22;38624;53.242;6.974;2022-08-21T15:33:01;32.70;75.40
52731;DHT22;38624;53.242;6.974;2022-08-21T15:35:27;33.30;74.80
52731;DHT22;38624;53.242;6.974;2022-08-21T15:37:52;33.70;74.20
52731;DHT22;38624;53.242;6.974;2022-08-21T15:40:18;33.90;73.50
52731;DHT22;38624;53.242;6.974;2022-08-21T15:42:44;33.30;73.20
52731;DHT22;38624;53.242;6.974;2022-08-21T15:45:11;33.00;73.10
52731;DHT22;38624;53.242;6.974;2022-08-21T15:47:38;32.90;72.10
52731;DHT22;38624;53.242;6.974;2022-08-21T15:50:07;33.10;71.70
52731;DHT22;38624;53.242;6.974;2022-08-21T15:52:33;33.30;71.50
52731;DHT22;38624;53.242;6.974;2022-08-21T15:54:58;33.00;71.20
52731;DHT22;38624;53.242;6.974;2022-08-21T15:57:25;33.00;71.50
52731;DHT22;38624;53.242;6.974;2022-08-21T15:59:58;33.10;71.20
52731;DHT22;38624;53.242;6.974;2022-08-21T16:02:27;33.10;71.00
52731;DHT22;38624;53.242;6.974;2022-08-21T16:04:54;32.50;71.10
52731;DHT22;38624;53.242;6.974;2022-08-21T16:07:20;31.40;72.50
52731;DHT22;38624;53.242;6.974;2022-08-21T16:09:46;30.50;73.80
52731;DHT22;38624;53.242;6.974;2022-08-21T16:12:17;30.30;74.20
52731;DHT22;38624;53.242;6.974;2022-08-21T16:14:45;29.50;74.70
52731;DHT22;38624;53.242;6.974;2022-08-21T16:17:11;28.90;76.20
52731;DHT22;38624;53.242;6.974;2022-08-21T16:19:37;28.30;76.40
52731;DHT22;38624;53.242;6.974;2022-08-21T16:22:03;27.80;77.20
52731;DHT22;38624;53.242;6.974;2022-08-21T16:24:29;27.20;79.00
52731;DHT22;38624;53.242;6.974;2022-08-21T16:26:55;27.00;79.70
52731;DHT22;38624;53.242;6.974;2022-08-21T16:29:21;26.80;80.80
52731;DHT22;38624;53.242;6.974;2022-08-21T16:31:48;26.60;81.30
52731;DHT22;38624;53.242;6.974;2022-08-21T16:34:16;26.40;81.70
52731;DHT22;38624;53.242;6.974;2022-08-21T16:36:43;26.00;82.00
52731;DHT22;38624;53.242;6.974;2022-08-21T16:39:08;25.80;82.90
52731;DHT22;38624;53.242;6.974;2022-08-21T16:41:35;25.90;83.60
52731;DHT22;38624;53.242;6.974;2022-08-21T16:44:02;25.90;84.00
52731;DHT22;38624;53.242;6.974;2022-08-21T16:46:32;25.80;83.90
52731;DHT22;38624;53.242;6.974;2022-08-21T16:48:58;25.40;84.10
52731;DHT22;38624;53.242;6.974;2022-08-21T16:51:23;25.10;85.30
52731;DHT22;38624;53.242;6.974;2022-08-21T16:53:49;24.80;86.00